Terminal Aerodrome Forecast
Issued by NWS Nashville, TN

Home | Current Version | Previous Version | Text Only | Print | Product List | Glossary On
Versions: 1 2 3 4 5 6 7 8 9 10 11 12 13 14 15
000
FTUS44 KOHX 290520
TAFCSV
TAF
KCSV 290520Z 2906/3006 00000KT P6SM SCT050
      TEMPO 2911/2913 5SM BR BKN030
     FM291500 17006KT P6SM SCT050 BKN250
     FM291800 18006KT P6SM BKN030
     FM300000 00000KT P6SM BKN150=

USA.gov is the U.S. government's official web portal to all federal, state and local government web resources and services.